createdAt,value
2022-12-15T00:01:02.028Z,64.43
2022-12-15T00:03:24.744Z,69.30
2022-12-15T00:05:50.118Z,63.53
2022-12-15T00:08:10.992Z,54.97
2022-12-15T00:10:31.876Z,50.57
2022-12-15T00:12:52.488Z,51.17
2022-12-15T00:15:14.144Z,42.43
2022-12-15T00:17:34.920Z,41.53
2022-12-15T00:19:55.655Z,37.77
2022-12-15T00:22:17.351Z,38.90
2022-12-15T00:24:38.334Z,39.73
2022-12-15T00:26:58.826Z,35.13
2022-12-15T00:29:19.470Z,35.53
2022-12-15T00:31:40.075Z,35.03
2022-12-15T00:34:00.610Z,31.43
2022-12-15T00:36:21.388Z,29.50
2022-12-15T00:38:41.718Z,25.37
2022-12-15T00:40:43.853Z,23.17
2022-12-15T00:42:45.965Z,26.20
2022-12-15T00:44:51.716Z,27.33
2022-12-15T00:46:56.818Z,31.63
2022-12-15T00:48:59.500Z,36.87
2022-12-15T00:51:01.682Z,33.20
2022-12-15T00:53:25.137Z,31.10
2022-12-15T00:55:45.951Z,29.47
2022-12-15T00:58:06.638Z,35.37
2022-12-15T01:00:29.039Z,33.37
2022-12-15T01:02:49.995Z,33.57
2022-12-15T01:05:10.878Z,32.67
2022-12-15T01:07:31.502Z,30.97
2022-12-15T01:09:52.464Z,27.53
2022-12-15T01:12:16.149Z,27.53
2022-12-15T01:14:36.464Z,28.53
2022-12-15T01:16:56.867Z,25.17
2022-12-15T01:19:17.687Z,24.57
2022-12-15T01:21:24.278Z,28.90
2022-12-15T01:23:27.870Z,28.73
2022-12-15T01:25:30.513Z,25.57
2022-12-15T01:27:36.043Z,22.43
2022-12-15T01:29:38.209Z,25.10
2022-12-15T01:31:40.686Z,29.40
2022-12-15T01:33:44.873Z,29.07
2022-12-15T01:35:56.152Z,26.47
2022-12-15T01:37:58.328Z,26.30
2022-12-15T01:40:19.245Z,27.53
2022-12-15T01:42:21.428Z,30.53
2022-12-15T01:44:24.718Z,30.43
2022-12-15T01:46:26.856Z,29.43
2022-12-15T01:48:35.979Z,25.10
2022-12-15T01:50:44.454Z,27.20
2022-12-15T01:52:50.745Z,25.73
2022-12-15T01:54:57.982Z,28.03
2022-12-15T01:57:07.779Z,23.70
2022-12-15T01:59:15.228Z,22.00
2022-12-15T02:01:17.810Z,22.90
2022-12-15T02:03:20.557Z,22.83
2022-12-15T02:05:24.359Z,20.90
2022-12-15T02:07:27.302Z,21.07
2022-12-15T02:09:30.205Z,22.37
2022-12-15T02:11:54.159Z,20.20
2022-12-15T02:14:05.621Z,21.40
2022-12-15T02:16:30.979Z,22.00
2022-12-15T02:18:46.796Z,21.27
2022-12-15T02:20:58.010Z,21.23
2022-12-15T02:23:52.178Z,22.90
2022-12-15T02:26:12.323Z,24.03
2022-12-15T02:28:31.988Z,23.67
2022-12-15T02:31:18.755Z,24.90
2022-12-15T02:33:27.622Z,26.80
2022-12-15T02:35:53.933Z,26.23
2022-12-15T02:37:56.037Z,24.90
2022-12-15T02:39:58.217Z,23.97
2022-12-15T02:42:00.676Z,24.80
2022-12-15T02:44:41.587Z,22.03
2022-12-15T02:46:46.552Z,24.47
2022-12-15T02:49:12.505Z,23.13
2022-12-15T02:51:59.063Z,22.83
2022-12-15T02:54:30.000Z,22.63
2022-12-15T02:56:46.992Z,23.50
2022-12-15T02:59:00.988Z,22.30
2022-12-15T03:01:13.792Z,22.20
2022-12-15T03:03:20.815Z,23.03
2022-12-15T03:05:25.213Z,23.63
2022-12-15T03:07:28.178Z,23.37
2022-12-15T03:09:31.633Z,22.67
2022-12-15T03:11:34.608Z,19.23
2022-12-15T03:13:36.714Z,20.33
2022-12-15T03:15:39.165Z,20.47
2022-12-15T03:17:41.610Z,20.90
2022-12-15T03:19:43.645Z,24.67
2022-12-15T03:21:45.977Z,27.87
2022-12-15T03:23:51.153Z,34.57
2022-12-15T03:25:53.527Z,35.27
2022-12-15T03:27:56.100Z,36.10
2022-12-15T03:29:58.272Z,32.73
2022-12-15T03:32:00.952Z,31.40
2022-12-15T03:34:03.190Z,32.43
2022-12-15T03:36:05.773Z,29.07
2022-12-15T03:38:08.071Z,28.83
2022-12-15T03:40:11.510Z,27.57
2022-12-15T03:42:13.481Z,30.50
2022-12-15T03:44:15.386Z,37.50
2022-12-15T03:46:17.694Z,35.60
2022-12-15T03:48:19.900Z,30.63
2022-12-15T03:50:26.476Z,30.43
2022-12-15T03:52:28.733Z,27.77
2022-12-15T03:54:33.270Z,29.13
2022-12-15T03:56:35.200Z,29.97
2022-12-15T03:58:37.765Z,29.37
2022-12-15T04:00:40.024Z,30.73
2022-12-15T04:02:43.220Z,28.17
2022-12-15T04:04:47.773Z,29.93
2022-12-15T04:06:49.753Z,28.73
2022-12-15T04:08:52.140Z,26.20
2022-12-15T04:10:54.311Z,27.80
2022-12-15T04:13:00.154Z,38.63
2022-12-15T04:15:02.185Z,35.10
2022-12-15T04:17:04.218Z,36.50
2022-12-15T04:19:24.980Z,37.83
2022-12-15T04:21:27.098Z,33.97
2022-12-15T04:23:29.587Z,31.53
2022-12-15T04:25:51.033Z,32.47
2022-12-15T04:28:11.904Z,35.10
2022-12-15T04:30:32.838Z,32.83
2022-12-15T04:32:53.644Z,32.80
2022-12-15T04:35:14.200Z,30.63
2022-12-15T04:37:34.908Z,33.00
2022-12-15T04:39:58.350Z,36.23
2022-12-15T04:42:21.442Z,37.93
2022-12-15T04:44:42.494Z,39.90
2022-12-15T04:47:03.236Z,37.93
2022-12-15T04:49:24.099Z,38.47
2022-12-15T04:51:44.709Z,40.33
2022-12-15T04:54:05.256Z,35.80
2022-12-15T04:56:30.832Z,38.20
2022-12-15T04:58:53.060Z,37.37
2022-12-15T05:01:16.481Z,34.80
2022-12-15T05:03:37.449Z,34.13
2022-12-15T05:05:58.633Z,32.03
2022-12-15T05:08:19.524Z,30.47
2022-12-15T05:10:40.425Z,28.60
2022-12-15T05:13:02.307Z,28.23
2022-12-15T05:15:26.125Z,28.40
2022-12-15T05:17:49.212Z,26.67
2022-12-15T05:20:09.549Z,25.47
2022-12-15T05:22:30.293Z,22.63
2022-12-15T05:24:50.821Z,21.80
2022-12-15T05:27:11.839Z,22.83
2022-12-15T05:29:32.497Z,23.73
2022-12-15T05:31:52.952Z,23.23
2022-12-15T05:34:02.607Z,25.43
2022-12-15T05:36:07.548Z,30.90
2022-12-15T05:38:09.740Z,29.60
2022-12-15T05:40:15.166Z,29.47
2022-12-15T05:42:18.681Z,34.60
2022-12-15T05:44:20.880Z,40.27
2022-12-15T05:46:23.100Z,40.40
2022-12-15T05:48:27.513Z,40.27
2022-12-15T05:50:31.160Z,45.77
2022-12-15T05:52:33.328Z,55.37
2022-12-15T05:54:35.845Z,63.33
2022-12-15T05:56:38.618Z,81.97
2022-12-15T05:58:45.468Z,80.03
2022-12-15T06:00:47.841Z,72.37
2022-12-15T06:02:50.316Z,66.67
2022-12-15T06:04:52.870Z,55.83
2022-12-15T06:06:54.951Z,48.00
2022-12-15T06:08:58.117Z,43.77
2022-12-15T06:11:01.018Z,38.17
2022-12-15T06:13:03.187Z,34.13
2022-12-15T06:15:08.595Z,34.37
2022-12-15T06:17:10.693Z,35.10
2022-12-15T06:19:15.848Z,31.87
2022-12-15T06:21:20.540Z,30.30
2022-12-15T06:23:22.825Z,30.17
2022-12-15T06:25:24.921Z,27.83
2022-12-15T06:27:27.372Z,26.87
2022-12-15T06:29:29.479Z,27.57
2022-12-15T06:31:32.904Z,27.47
2022-12-15T06:33:35.446Z,27.87
2022-12-15T06:35:38.075Z,27.00
2022-12-15T06:37:40.225Z,27.20
2022-12-15T06:39:42.927Z,27.63
2022-12-15T06:41:45.495Z,26.87
2022-12-15T06:43:52.714Z,28.70
2022-12-15T06:45:54.853Z,26.47
2022-12-15T06:48:01.311Z,27.30
2022-12-15T06:50:04.047Z,25.63
2022-12-15T06:52:06.074Z,25.27
2022-12-15T06:54:11.371Z,34.30
2022-12-15T06:56:20.515Z,32.50
2022-12-15T06:58:23.042Z,29.83
2022-12-15T07:00:50.564Z,29.70
2022-12-15T07:02:53.655Z,26.07
2022-12-15T07:04:57.223Z,27.67
2022-12-15T07:06:59.766Z,25.70
2022-12-15T07:09:02.015Z,26.03
2022-12-15T07:11:05.486Z,27.27
2022-12-15T07:13:11.390Z,27.60
2022-12-15T07:15:13.655Z,26.93
2022-12-15T07:17:16.825Z,27.90
2022-12-15T07:19:19.027Z,27.73
2022-12-15T07:21:21.074Z,31.10
2022-12-15T07:23:45.966Z,32.27
2022-12-15T07:25:45.608Z,34.80
2022-12-15T07:27:48.096Z,37.50
2022-12-15T07:29:50.475Z,35.87
2022-12-15T07:31:52.935Z,29.73
2022-12-15T07:33:55.175Z,29.30
2022-12-15T07:35:57.306Z,28.83
2022-12-15T07:38:00.533Z,27.50
2022-12-15T07:40:05.017Z,23.90
2022-12-15T07:42:07.259Z,24.60
2022-12-15T07:44:10.393Z,26.33
2022-12-15T07:46:13.089Z,30.60
2022-12-15T07:48:15.139Z,34.93
2022-12-15T07:50:18.977Z,31.57
2022-12-15T07:52:21.192Z,32.43
2022-12-15T07:54:23.723Z,30.97
2022-12-15T07:56:28.182Z,33.97
2022-12-15T07:58:30.307Z,33.87
2022-12-15T08:00:32.651Z,33.13
2022-12-15T08:02:34.878Z,31.80
2022-12-15T08:04:37.437Z,38.20
2022-12-15T08:06:39.621Z,42.73
2022-12-15T08:08:41.823Z,44.70
2022-12-15T08:10:44.631Z,42.30
2022-12-15T08:12:46.795Z,42.80
2022-12-15T08:14:50.179Z,34.03
2022-12-15T08:16:52.593Z,30.83
2022-12-15T08:18:57.368Z,31.00
2022-12-15T08:21:04.329Z,28.60
2022-12-15T08:23:06.349Z,28.73
2022-12-15T08:25:08.830Z,28.17
2022-12-15T08:27:11.012Z,31.90
2022-12-15T08:31:36.790Z,31.00
2022-12-15T08:33:39.910Z,30.23
2022-12-15T08:35:56.306Z,31.20
2022-12-15T08:38:05.451Z,33.67
2022-12-15T08:40:08.216Z,31.93
2022-12-15T08:42:10.407Z,31.00
2022-12-15T08:44:12.443Z,32.57
2022-12-15T08:46:17.121Z,41.23
2022-12-15T08:48:19.234Z,39.17
2022-12-15T08:50:22.298Z,38.93
2022-12-15T08:52:24.769Z,38.43
2022-12-15T08:54:29.671Z,34.07
2022-12-15T08:56:31.799Z,29.83
2022-12-15T08:58:34.317Z,29.60
2022-12-15T09:00:36.330Z,29.73
2022-12-15T09:02:38.567Z,28.07
2022-12-15T09:04:40.995Z,26.47
2022-12-15T09:06:43.989Z,31.43
2022-12-15T09:08:50.804Z,64.37
2022-12-15T09:10:53.183Z,57.47
2022-12-15T09:12:55.132Z,67.80
2022-12-15T09:14:57.233Z,54.83
2022-12-15T09:16:59.420Z,69.70
2022-12-15T09:19:03.666Z,66.03
2022-12-15T09:21:08.007Z,66.23
2022-12-15T09:23:10.087Z,66.07
2022-12-15T09:25:12.103Z,55.43
2022-12-15T09:27:14.495Z,52.70
2022-12-15T09:29:16.507Z,50.40
2022-12-15T09:31:22.705Z,45.37
2022-12-15T09:33:24.891Z,40.93
2022-12-15T09:35:27.798Z,37.30
2022-12-15T09:37:31.341Z,42.77
2022-12-15T09:39:34.199Z,38.47
2022-12-15T09:41:36.879Z,29.93
2022-12-15T09:43:47.958Z,35.83
2022-12-15T09:45:57.432Z,38.90
2022-12-15T09:48:05.096Z,38.70
2022-12-15T09:50:12.178Z,30.17
2022-12-15T09:52:20.746Z,25.03
2022-12-15T09:54:30.876Z,22.33
2022-12-15T09:56:42.693Z,20.60
2022-12-15T09:58:56.815Z,20.20
2022-12-15T10:01:38.290Z,21.83
2022-12-15T10:04:00.467Z,24.33
2022-12-15T10:06:22.054Z,24.87
2022-12-15T10:08:30.697Z,23.27
2022-12-15T10:11:01.955Z,23.63
2022-12-15T10:13:12.151Z,22.30
2022-12-15T10:15:26.454Z,21.70
2022-12-15T10:17:59.411Z,22.23
2022-12-15T10:20:21.081Z,23.17
2022-12-15T10:22:30.279Z,22.50
2022-12-15T10:27:18.361Z,21.53
2022-12-15T10:29:57.300Z,19.87
2022-12-15T10:32:09.715Z,21.20
2022-12-15T10:34:25.614Z,25.30
2022-12-15T10:36:27.931Z,33.27
2022-12-15T10:38:45.935Z,32.70
2022-12-15T10:40:59.840Z,28.17
2022-12-15T10:43:12.812Z,27.17
2022-12-15T10:45:41.454Z,23.30
2022-12-15T10:47:59.301Z,21.13
2022-12-15T10:50:25.010Z,22.80
2022-12-15T10:52:37.565Z,23.43
2022-12-15T10:54:45.937Z,26.53
2022-12-15T10:56:57.000Z,22.70
2022-12-15T10:59:02.953Z,21.83
2022-12-15T11:01:20.676Z,24.60
2022-12-15T11:03:25.247Z,20.47
2022-12-15T11:05:28.485Z,19.43
2022-12-15T11:07:44.110Z,17.60
2022-12-15T11:09:49.189Z,16.87
2022-12-15T11:12:12.247Z,17.83
2022-12-15T11:14:19.800Z,16.27
2022-12-15T11:16:22.000Z,14.13
2022-12-15T11:18:28.209Z,13.93
2022-12-15T11:20:41.088Z,15.77
2022-12-15T11:22:52.481Z,13.57
2022-12-15T11:25:17.734Z,14.97
2022-12-15T11:27:35.987Z,14.73
2022-12-15T11:29:47.219Z,16.17
2022-12-15T11:31:54.909Z,14.20
2022-12-15T11:33:57.371Z,13.40
2022-12-15T11:36:10.580Z,13.53
2022-12-15T11:38:33.095Z,12.97
2022-12-15T11:40:42.624Z,12.07
2022-12-15T11:43:02.211Z,12.03
2022-12-15T11:45:19.362Z,12.13
2022-12-15T11:47:49.255Z,12.17
2022-12-15T11:50:17.811Z,13.93
2022-12-15T11:53:13.731Z,13.37
2022-12-15T11:55:41.201Z,12.23
2022-12-15T11:57:50.531Z,11.90
2022-12-15T12:08:01.579Z,14.03
2022-12-15T12:10:27.848Z,14.80
2022-12-15T12:12:50.489Z,15.93
2022-12-15T12:15:13.707Z,25.13
2022-12-15T12:17:42.303Z,23.37
2022-12-15T12:19:58.027Z,22.47
2022-12-15T12:22:06.366Z,19.70
2022-12-15T12:24:23.712Z,17.83
2022-12-15T12:26:50.209Z,17.87
2022-12-15T12:29:08.029Z,17.07
2022-12-15T12:31:39.036Z,17.00
2022-12-15T12:33:47.329Z,23.23
2022-12-15T12:35:57.583Z,27.30
2022-12-15T12:38:11.343Z,25.33
2022-12-15T12:40:28.742Z,24.40
2022-12-15T12:42:41.147Z,29.47
2022-12-15T12:44:43.558Z,29.80
2022-12-15T12:46:50.815Z,28.23
2022-12-15T12:49:26.445Z,26.07
2022-12-15T12:51:33.145Z,23.60
2022-12-15T12:53:35.852Z,22.77
2022-12-15T12:55:42.576Z,23.23
2022-12-15T12:57:46.359Z,22.13
2022-12-15T12:59:52.675Z,20.87
2022-12-15T13:02:11.679Z,22.90
2022-12-15T13:04:40.380Z,23.37
2022-12-15T13:06:42.164Z,37.00
2022-12-15T13:08:51.178Z,38.43
2022-12-15T13:10:55.870Z,41.40
2022-12-15T13:12:59.391Z,35.50
2022-12-15T13:15:11.148Z,33.10
2022-12-15T13:17:31.277Z,29.87
2022-12-15T13:20:01.419Z,30.10
2022-12-15T13:22:03.664Z,28.73
2022-12-15T13:24:28.816Z,35.07
2022-12-15T13:26:34.762Z,33.50
2022-12-15T13:28:36.775Z,30.93
2022-12-15T13:31:17.617Z,32.87
2022-12-15T13:33:19.766Z,37.60
2022-12-15T13:35:33.395Z,48.07
2022-12-15T13:40:35.950Z,38.80
2022-12-15T13:42:53.068Z,35.50
2022-12-15T13:45:13.734Z,35.00
2022-12-15T13:47:23.040Z,36.97
2022-12-15T13:49:53.271Z,38.80
2022-12-15T13:52:03.787Z,41.40
2022-12-15T13:54:10.026Z,39.10
2022-12-15T13:56:12.013Z,38.13
2022-12-15T13:58:17.739Z,40.23
2022-12-15T14:00:20.356Z,40.23
2022-12-15T14:02:27.269Z,41.60
2022-12-15T14:04:29.551Z,47.03
2022-12-15T14:06:44.395Z,40.43
2022-12-15T14:08:50.845Z,34.47
2022-12-15T14:10:56.197Z,34.60
2022-12-15T14:13:01.588Z,31.77
2022-12-15T14:15:04.718Z,35.13
2022-12-15T14:17:14.571Z,33.87
2022-12-15T14:19:18.880Z,32.07
2022-12-15T14:21:24.026Z,30.97
2022-12-15T14:23:40.727Z,31.17
2022-12-15T14:25:55.308Z,31.77
2022-12-15T14:27:58.225Z,35.80
2022-12-15T14:30:29.641Z,42.50
2022-12-15T14:32:32.115Z,42.87
2022-12-15T14:34:40.492Z,39.53
2022-12-15T14:36:44.554Z,44.80
2022-12-15T14:38:54.302Z,57.80
2022-12-15T14:41:00.413Z,63.37
2022-12-15T14:43:03.246Z,60.10
2022-12-15T14:45:06.326Z,41.40
2022-12-15T14:47:19.761Z,30.27
2022-12-15T14:49:26.682Z,27.03
2022-12-15T14:51:31.291Z,26.17
2022-12-15T14:53:45.053Z,33.87
2022-12-15T14:55:53.741Z,41.90
2022-12-15T14:58:01.174Z,37.97
2022-12-15T15:00:32.112Z,35.63
2022-12-15T15:02:35.602Z,29.63
2022-12-15T15:03:07.530Z,41.67
2022-12-15T15:04:42.167Z,26.80
2022-12-15T15:06:50.629Z,32.53
2022-12-15T15:08:57.319Z,26.23
2022-12-15T15:11:19.840Z,22.80
2022-12-15T15:13:25.511Z,18.97
2022-12-15T15:15:27.989Z,20.37
2022-12-15T15:17:51.195Z,23.43
2022-12-15T15:19:58.021Z,21.43
2022-12-15T15:22:01.602Z,21.83
2022-12-15T15:24:21.958Z,17.10
2022-12-15T15:26:28.266Z,13.60
2022-12-15T15:28:44.179Z,13.83
2022-12-15T15:30:57.890Z,11.80
2022-12-15T15:33:02.356Z,13.90
2022-12-15T15:35:05.372Z,13.83
2022-12-15T15:37:27.798Z,13.93
2022-12-15T15:39:30.772Z,17.40
2022-12-15T15:41:33.969Z,17.27
2022-12-15T15:43:36.423Z,20.27
2022-12-15T15:45:41.955Z,20.77
2022-12-15T15:47:48.651Z,27.00
2022-12-15T15:49:52.383Z,26.10
2022-12-15T15:51:56.650Z,26.93
2022-12-15T15:54:02.693Z,25.37
2022-12-15T15:56:12.403Z,25.63
2022-12-15T15:58:16.057Z,23.80
2022-12-15T16:00:21.785Z,23.37
2022-12-15T16:02:24.041Z,21.97
2022-12-15T16:04:26.663Z,24.50
2022-12-15T16:06:29.325Z,25.43
2022-12-15T16:08:35.517Z,31.97
2022-12-15T16:10:38.081Z,29.30
2022-12-15T16:12:49.588Z,27.97
2022-12-15T16:14:52.166Z,29.50
2022-12-15T16:17:00.453Z,23.67
2022-12-15T16:19:05.614Z,24.03
2022-12-15T16:21:14.241Z,22.93
2022-12-15T16:23:20.539Z,24.93
2022-12-15T16:25:48.419Z,30.37
2022-12-15T16:28:34.787Z,31.83
2022-12-15T16:30:37.127Z,32.17
2022-12-15T16:32:39.067Z,27.53
2022-12-15T16:34:42.259Z,24.73
2022-12-15T16:36:45.269Z,26.40
2022-12-15T16:38:48.065Z,33.50
2022-12-15T16:40:50.624Z,26.53
2022-12-15T16:43:04.260Z,24.07
2022-12-15T16:45:18.272Z,47.77
2022-12-15T16:47:20.358Z,48.47
2022-12-15T16:49:22.397Z,43.07
2022-12-15T16:51:39.287Z,31.93
2022-12-15T16:53:43.075Z,28.97
2022-12-15T16:55:45.979Z,29.07
2022-12-15T16:57:48.806Z,32.07
2022-12-15T16:59:51.835Z,29.33
2022-12-15T17:01:56.066Z,28.10
2022-12-15T17:04:00.862Z,25.17
2022-12-15T17:06:07.454Z,23.03
2022-12-15T17:08:23.659Z,22.40
2022-12-15T17:10:28.777Z,25.43
2022-12-15T17:12:30.957Z,30.90
2022-12-15T17:14:32.973Z,45.97
2022-12-15T17:16:35.079Z,44.60
2022-12-15T17:18:38.128Z,42.60
2022-12-15T17:20:40.258Z,67.33
2022-12-15T17:22:42.280Z,72.80
2022-12-15T17:24:46.107Z,78.07
2022-12-15T17:26:48.310Z,67.10
2022-12-15T17:28:50.577Z,56.07
2022-12-15T17:30:52.990Z,50.07
2022-12-15T17:33:33.544Z,49.70
2022-12-15T17:35:36.072Z,51.87
2022-12-15T17:37:39.633Z,51.60
2022-12-15T17:39:44.986Z,45.43
2022-12-15T17:42:04.581Z,45.87
2022-12-15T17:44:32.827Z,40.87
2022-12-15T17:46:36.176Z,41.67
2022-12-15T17:48:40.892Z,44.67
2022-12-15T17:50:49.832Z,47.83
2022-12-15T17:52:52.394Z,50.00
2022-12-15T17:54:55.144Z,49.40
2022-12-15T17:56:57.610Z,48.97
2022-12-15T17:59:02.958Z,50.33
2022-12-15T18:01:05.442Z,48.47
2022-12-15T18:03:09.562Z,45.33
2022-12-15T18:05:11.841Z,35.10
2022-12-15T18:07:20.800Z,30.83
2022-12-15T18:09:24.500Z,27.20
2022-12-15T18:11:26.603Z,25.60
2022-12-15T18:13:35.642Z,29.67
2022-12-15T18:15:38.500Z,27.47
2022-12-15T18:17:40.580Z,25.67
2022-12-15T18:19:42.560Z,24.23
2022-12-15T18:21:44.804Z,25.80
2022-12-15T18:23:49.676Z,21.43
2022-12-15T18:25:51.942Z,19.80
2022-12-15T18:27:54.839Z,19.80
2022-12-15T18:29:57.434Z,64.40
2022-12-15T18:31:59.794Z,58.53
2022-12-15T18:34:04.751Z,62.30
2022-12-15T18:36:09.125Z,58.50
2022-12-15T18:38:31.614Z,48.63
2022-12-15T18:40:33.833Z,36.93
2022-12-15T18:42:37.358Z,36.50
2022-12-15T18:44:40.433Z,51.63
2022-12-15T18:46:48.131Z,64.77
2022-12-15T18:48:50.433Z,58.30
2022-12-15T18:50:54.190Z,50.23
2022-12-15T18:53:02.455Z,41.60
2022-12-15T18:55:14.653Z,34.37
2022-12-15T18:57:38.921Z,44.30
2022-12-15T18:59:41.314Z,37.33
2022-12-15T19:01:45.797Z,37.93
2022-12-15T19:03:48.519Z,50.13
2022-12-15T19:05:57.044Z,67.67
2022-12-15T19:08:20.354Z,54.70
2022-12-15T19:10:22.450Z,46.50
2022-12-15T19:12:24.803Z,39.57
2022-12-15T19:14:43.243Z,42.77
2022-12-15T19:17:06.131Z,33.50
2022-12-15T19:19:30.284Z,27.03
2022-12-15T19:21:53.330Z,22.47
2022-12-15T19:23:55.588Z,25.80
2022-12-15T19:25:58.142Z,29.80
2022-12-15T19:28:02.841Z,32.00
2022-12-15T19:30:22.713Z,31.00
2022-12-15T19:32:24.740Z,30.80
2022-12-15T19:34:27.111Z,33.53
2022-12-15T19:36:36.568Z,27.50
2022-12-15T19:38:39.185Z,31.27
2022-12-15T19:40:41.283Z,31.10
2022-12-15T19:42:44.999Z,38.97
2022-12-15T19:44:47.288Z,37.13
2022-12-15T19:46:49.491Z,42.10
2022-12-15T19:48:51.869Z,39.63
2022-12-15T19:50:54.883Z,34.13
2022-12-15T19:53:01.170Z,42.27
2022-12-15T19:55:03.610Z,51.03
2022-12-15T19:57:13.761Z,40.73
2022-12-15T19:59:23.827Z,36.93
2022-12-15T20:01:26.272Z,44.33
2022-12-15T20:03:30.486Z,41.47
2022-12-15T20:05:33.005Z,41.13
2022-12-15T20:07:35.323Z,36.47
2022-12-15T20:09:38.567Z,34.30
2022-12-15T20:11:40.598Z,33.80
2022-12-15T20:13:43.007Z,28.33
2022-12-15T20:15:45.706Z,26.87
2022-12-15T20:17:52.936Z,25.93
2022-12-15T20:19:56.745Z,26.57
2022-12-15T20:21:59.247Z,33.10
2022-12-15T20:24:08.121Z,38.30
2022-12-15T20:26:12.116Z,40.93
2022-12-15T20:28:22.509Z,40.47
2022-12-15T20:30:29.189Z,34.03
2022-12-15T20:32:38.139Z,26.60
2022-12-15T20:34:43.541Z,22.10
2022-12-15T20:36:47.489Z,31.70
2022-12-15T20:38:49.745Z,37.90
2022-12-15T20:40:56.745Z,39.03
2022-12-15T20:42:59.384Z,42.10
2022-12-15T20:45:02.915Z,42.47
2022-12-15T20:47:05.603Z,41.33
2022-12-15T20:49:16.145Z,42.33
2022-12-15T20:51:24.177Z,42.23
2022-12-15T20:53:27.409Z,41.17
2022-12-15T20:55:30.411Z,39.10
2022-12-15T20:57:32.394Z,39.17
2022-12-15T20:59:34.408Z,37.53
2022-12-15T21:01:41.457Z,53.30
2022-12-15T21:03:43.837Z,49.30
2022-12-15T21:05:46.516Z,45.47
2022-12-15T21:07:49.247Z,42.47
2022-12-15T21:09:51.710Z,36.93
2022-12-15T21:11:55.237Z,35.80
2022-12-15T21:14:04.111Z,28.83
2022-12-15T21:16:07.134Z,25.67
2022-12-15T21:18:57.157Z,24.43
2022-12-15T21:20:34.814Z,22.30
2022-12-15T21:22:37.067Z,23.80
2022-12-15T21:24:39.638Z,26.33
2022-12-15T21:26:41.766Z,26.73
2022-12-15T21:28:43.810Z,28.50
2022-12-15T21:30:46.151Z,29.77
2022-12-15T21:32:49.502Z,29.93
2022-12-15T21:34:52.368Z,26.43
2022-12-15T21:36:57.675Z,24.17
2022-12-15T21:39:00.077Z,20.83
2022-12-15T21:41:07.810Z,18.97
2022-12-15T21:43:11.928Z,16.10
2022-12-15T21:45:16.333Z,15.87
2022-12-15T21:47:21.266Z,15.80
2022-12-15T21:49:23.701Z,16.63
2022-12-15T21:51:27.838Z,16.93
2022-12-15T21:53:30.240Z,15.87
2022-12-15T21:55:32.652Z,15.50
2022-12-15T21:57:34.714Z,17.97
2022-12-15T21:59:36.966Z,17.43
2022-12-15T22:01:39.601Z,17.03
2022-12-15T22:03:46.080Z,16.23
2022-12-15T22:05:48.107Z,18.17
2022-12-15T22:07:51.612Z,20.80
2022-12-15T22:09:53.983Z,19.83
2022-12-15T22:11:57.527Z,19.13
2022-12-15T22:14:13.632Z,20.37
2022-12-15T22:16:18.637Z,18.33
2022-12-15T22:18:22.607Z,19.87
2022-12-15T22:20:25.612Z,19.80
2022-12-15T22:22:31.709Z,20.50
2022-12-15T22:24:34.428Z,19.87
2022-12-15T22:26:37.640Z,19.93
2022-12-15T22:28:42.609Z,18.00
2022-12-15T22:30:44.880Z,17.20
2022-12-15T22:32:47.177Z,16.43
2022-12-15T22:34:49.716Z,18.13
2022-12-15T22:36:52.798Z,22.97
2022-12-15T22:38:56.973Z,22.83
2022-12-15T22:41:00.111Z,22.40
2022-12-15T22:43:02.851Z,20.57
2022-12-15T22:45:06.905Z,22.07
2022-12-15T22:47:11.030Z,25.60
2022-12-15T22:49:17.751Z,30.73
2022-12-15T22:51:20.398Z,29.30
2022-12-15T22:53:24.628Z,26.03
2022-12-15T22:55:26.692Z,23.67
2022-12-15T22:57:29.815Z,22.33
2022-12-15T23:00:34.673Z,24.10
2022-12-15T23:02:43.670Z,23.63
2022-12-15T23:04:45.911Z,25.20
2022-12-15T23:06:48.005Z,26.20
2022-12-15T23:08:55.595Z,26.83
2022-12-15T23:11:18.276Z,26.77
2022-12-15T23:13:21.369Z,25.40
2022-12-15T23:15:44.474Z,24.87
2022-12-15T23:17:46.646Z,23.73
2022-12-15T23:19:48.920Z,23.73
2022-12-15T23:21:52.798Z,23.17
2022-12-15T23:23:55.540Z,20.60
2022-12-15T23:25:58.339Z,21.17
2022-12-15T23:28:00.909Z,21.93
2022-12-15T23:30:05.269Z,20.33
2022-12-15T23:32:07.648Z,19.47
2022-12-15T23:34:11.020Z,18.23
2022-12-15T23:36:13.662Z,16.63
2022-12-15T23:38:16.098Z,17.27
2022-12-15T23:40:22.441Z,16.37
2022-12-15T23:42:25.459Z,15.40
2022-12-15T23:44:27.803Z,15.17
2022-12-15T23:46:30.336Z,16.57
2022-12-15T23:48:35.627Z,14.27
2022-12-15T23:50:38.240Z,14.77
2022-12-15T23:52:40.949Z,15.30
2022-12-15T23:54:43.374Z,14.43
2022-12-15T23:56:45.574Z,15.40
2022-12-15T23:58:49.683Z,15.37
